createdAt,value
2023-01-13T00:00:15.216Z,8.80
2023-01-13T00:05:20.488Z,9.00
2023-01-13T00:10:23.870Z,8.90
2023-01-13T00:15:27.724Z,8.90
2023-01-13T00:20:32.530Z,8.80
2023-01-13T00:25:35.940Z,8.90
2023-01-13T00:30:39.344Z,8.80
2023-01-13T00:35:44.248Z,9.00
2023-01-13T00:40:56.961Z,9.00
2023-01-13T00:46:00.749Z,9.00
2023-01-13T00:51:08.217Z,9.20
2023-01-13T00:56:16.644Z,9.20
2023-01-13T01:01:21.669Z,9.10
2023-01-13T01:06:27.871Z,9.10
2023-01-13T01:11:32.655Z,9.10
2023-01-13T01:16:36.878Z,9.20
2023-01-13T01:21:41.657Z,9.20
2023-01-13T01:26:45.065Z,9.20
2023-01-13T01:31:48.562Z,9.10
2023-01-13T01:36:54.269Z,9.00
2023-01-13T01:42:20.556Z,8.90
2023-01-13T01:47:25.193Z,9.00
2023-01-13T01:52:32.723Z,9.00
2023-01-13T01:57:41.946Z,9.00
2023-01-13T02:02:51.180Z,9.00
2023-01-13T02:08:01.880Z,8.90
2023-01-13T02:13:09.321Z,8.80
2023-01-13T02:18:39.776Z,8.80
2023-01-13T02:24:32.480Z,8.80
2023-01-13T02:30:10.928Z,9.00
2023-01-13T02:35:22.883Z,9.00
2023-01-13T02:40:33.333Z,8.90
2023-01-13T02:45:45.622Z,9.00
2023-01-13T02:50:57.908Z,8.90
2023-01-13T02:56:03.991Z,8.80
2023-01-13T03:01:09.117Z,8.90
2023-01-13T03:06:33.432Z,9.00
2023-01-13T03:11:47.179Z,9.00
2023-01-13T03:17:08.309Z,9.00
2023-01-13T03:22:20.270Z,8.90
2023-01-13T03:27:31.475Z,8.90
2023-01-13T03:32:39.068Z,8.90
2023-01-13T03:37:46.872Z,8.90
2023-01-13T03:43:14.067Z,8.90
2023-01-13T03:48:21.780Z,9.00
2023-01-13T03:53:31.177Z,8.90
2023-01-13T03:58:37.338Z,9.10
2023-01-13T04:03:48.521Z,9.10
2023-01-13T04:08:57.557Z,9.00
2023-01-13T04:14:05.063Z,9.10
2023-01-13T04:19:09.807Z,9.10
2023-01-13T04:24:13.327Z,9.10
2023-01-13T04:29:17.225Z,9.20
2023-01-13T04:34:22.110Z,9.20
2023-01-13T04:39:25.484Z,9.10
2023-01-13T04:44:29.282Z,9.20
2023-01-13T04:49:33.919Z,9.10
2023-01-13T04:54:37.243Z,9.00
2023-01-13T04:59:42.168Z,8.90
2023-01-13T05:04:47.512Z,8.90
2023-01-13T05:09:52.894Z,9.00
2023-01-13T05:15:13.561Z,8.90
2023-01-13T05:20:19.510Z,8.90
2023-01-13T05:25:23.066Z,8.90
2023-01-13T05:30:28.947Z,8.80
2023-01-13T05:35:34.656Z,8.80
2023-01-13T05:40:59.422Z,8.80
2023-01-13T05:46:04.755Z,8.70
2023-01-13T05:51:11.206Z,8.80
2023-01-13T05:56:17.436Z,8.70
2023-01-13T06:01:21.690Z,8.80
2023-01-13T06:06:27.472Z,8.70
2023-01-13T06:11:32.760Z,8.70
2023-01-13T06:16:36.096Z,8.60
2023-01-13T06:21:44.977Z,8.70
2023-01-13T06:26:48.394Z,8.70
2023-01-13T06:31:51.874Z,8.70
2023-01-13T06:36:57.206Z,8.70
2023-01-13T06:42:18.616Z,8.70
2023-01-13T06:47:22.683Z,8.70
2023-01-13T06:52:30.500Z,8.70
2023-01-13T06:57:33.800Z,8.70
2023-01-13T07:02:37.091Z,8.70
2023-01-13T07:07:42.240Z,8.70
2023-01-13T07:13:03.037Z,8.80
2023-01-13T07:18:06.621Z,8.90
2023-01-13T07:23:12.223Z,8.80
2023-01-13T07:28:19.070Z,8.80
2023-01-13T07:33:22.969Z,8.80
2023-01-13T07:38:30.656Z,8.80
2023-01-13T07:43:35.155Z,8.80
2023-01-13T07:48:38.396Z,8.90
2023-01-13T07:53:43.077Z,8.90
2023-01-13T07:58:50.452Z,8.90
2023-01-13T08:03:53.764Z,8.90
2023-01-13T08:08:58.353Z,9.00
2023-01-13T08:14:01.987Z,9.10
2023-01-13T08:19:05.179Z,9.20
2023-01-13T08:24:11.927Z,9.30
2023-01-13T08:29:15.352Z,9.40
2023-01-13T08:34:18.576Z,9.50
2023-01-13T08:39:24.392Z,9.10
2023-01-13T08:44:29.290Z,8.90
2023-01-13T08:49:32.616Z,8.90
2023-01-13T08:54:39.051Z,9.00
2023-01-13T08:59:43.380Z,8.80
2023-01-13T09:04:47.387Z,8.80
2023-01-13T09:09:52.215Z,8.90
2023-01-13T09:14:55.377Z,8.80
2023-01-13T09:19:58.702Z,8.70
2023-01-13T09:25:03.440Z,8.70
2023-01-13T09:30:08.072Z,8.90
2023-01-13T09:35:11.505Z,8.90
2023-01-13T09:40:20.221Z,9.00
2023-01-13T09:45:26.943Z,9.30
2023-01-13T09:50:40.061Z,9.20
2023-01-13T09:55:45.639Z,9.10
2023-01-13T10:00:59.674Z,9.40
2023-01-13T10:06:11.590Z,9.70
2023-01-13T10:11:36.589Z,9.60
2023-01-13T10:16:46.449Z,9.10
2023-01-13T10:22:09.263Z,8.70
2023-01-13T10:27:19.977Z,8.70
2023-01-13T10:32:23.338Z,8.70
2023-01-13T10:37:28.382Z,8.80
2023-01-13T10:42:33.039Z,8.70
2023-01-13T10:47:38.103Z,8.70
2023-01-13T10:52:55.869Z,8.80
2023-01-13T10:58:13.625Z,9.80
2023-01-13T11:03:19.594Z,10.30
2023-01-13T11:08:24.901Z,10.30
2023-01-13T11:13:35.223Z,10.40
2023-01-13T11:19:02.357Z,10.20
2023-01-13T11:24:11.805Z,8.10
2023-01-13T11:29:25.486Z,7.00
2023-01-13T11:34:36.177Z,6.50
2023-01-13T11:39:49.074Z,6.30
2023-01-13T11:45:08.456Z,6.20
2023-01-13T11:50:17.998Z,6.00
2023-01-13T11:55:31.477Z,5.70
2023-01-13T12:00:44.384Z,5.70
2023-01-13T12:06:05.884Z,5.60
2023-01-13T12:11:17.653Z,5.60
2023-01-13T12:16:26.763Z,5.70
2023-01-13T12:21:34.061Z,5.90
2023-01-13T12:26:46.086Z,6.20
2023-01-13T12:31:52.417Z,6.30
2023-01-13T12:37:10.922Z,6.50
2023-01-13T12:42:37.684Z,6.80
2023-01-13T12:47:44.323Z,6.80
2023-01-13T12:52:47.619Z,6.80
2023-01-13T12:58:15.755Z,6.60
2023-01-13T13:03:37.526Z,6.50
2023-01-13T13:09:03.511Z,6.30
2023-01-13T13:14:08.360Z,6.80
2023-01-13T13:19:49.965Z,6.90
2023-01-13T13:25:24.759Z,7.30
2023-01-13T13:30:30.539Z,7.60
2023-01-13T13:35:58.516Z,7.80
2023-01-13T13:41:25.240Z,7.70
2023-01-13T13:46:50.325Z,7.60
2023-01-13T13:52:01.524Z,7.60
2023-01-13T13:57:05.080Z,8.10
2023-01-13T14:02:19.879Z,8.80
2023-01-13T14:07:24.613Z,8.90
2023-01-13T14:12:30.403Z,8.80
2023-01-13T14:17:34.442Z,8.90
2023-01-13T14:22:39.232Z,8.70
2023-01-13T14:27:44.819Z,8.70
2023-01-13T14:32:49.249Z,8.60
2023-01-13T14:38:04.305Z,8.30
2023-01-13T14:43:14.621Z,7.90
2023-01-13T14:48:17.963Z,7.90
2023-01-13T14:53:32.030Z,8.00
2023-01-13T14:58:45.471Z,8.00
2023-01-13T15:03:51.609Z,8.20
2023-01-13T15:08:56.749Z,8.40
2023-01-13T15:19:33.282Z,8.20
2023-01-13T15:24:39.163Z,7.90
2023-01-13T15:29:42.480Z,7.50
2023-01-13T15:34:47.108Z,7.10
2023-01-13T15:39:51.821Z,6.80
2023-01-13T15:45:13.792Z,6.70
2023-01-13T15:50:19.431Z,6.60
2023-01-13T15:55:24.515Z,6.30
2023-01-13T16:00:28.170Z,6.40
2023-01-13T16:05:32.502Z,6.30
2023-01-13T16:10:39.113Z,6.20
2023-01-13T16:15:47.041Z,6.10
2023-01-13T16:20:55.217Z,6.00
2023-01-13T16:26:00.190Z,6.00
2023-01-13T16:31:23.475Z,6.10
2023-01-13T16:36:27.176Z,6.10
2023-01-13T16:41:33.305Z,5.90
2023-01-13T16:46:38.282Z,5.70
2023-01-13T16:51:42.268Z,5.80
2023-01-13T16:56:47.063Z,5.80
2023-01-13T17:01:54.663Z,5.70
2023-01-13T17:07:01.329Z,5.60
2023-01-13T17:12:07.046Z,5.60
2023-01-13T17:17:20.884Z,5.80
2023-01-13T17:22:24.420Z,5.80
2023-01-13T17:27:29.193Z,5.90
2023-01-13T17:32:34.400Z,5.90
2023-01-13T17:37:37.689Z,5.90
2023-01-13T17:42:42.366Z,5.60
2023-01-13T17:47:47.407Z,5.40
2023-01-13T17:53:01.877Z,5.20
2023-01-13T17:58:06.553Z,5.20
2023-01-13T18:03:19.479Z,5.00
2023-01-13T18:08:23.897Z,4.90
2023-01-13T18:13:29.214Z,4.80
2023-01-13T18:18:34.459Z,4.70
2023-01-13T18:24:13.252Z,4.70
2023-01-13T18:29:18.663Z,4.50
2023-01-13T18:34:22.233Z,4.50
2023-01-13T18:39:26.555Z,4.30
2023-01-13T18:44:31.297Z,4.00
2023-01-13T18:49:36.225Z,3.90
2023-01-13T18:55:05.070Z,3.70
2023-01-13T19:00:12.704Z,3.50
2023-01-13T19:05:21.929Z,3.40
2023-01-13T19:10:25.426Z,3.40
2023-01-13T19:15:30.581Z,3.40
2023-01-13T19:20:35.636Z,3.30
2023-01-13T19:25:39.166Z,3.20
2023-01-13T19:30:43.911Z,3.10
2023-01-13T19:35:47.410Z,3.00
2023-01-13T19:40:57.287Z,3.00
2023-01-13T19:46:02.227Z,3.00
2023-01-13T19:51:06.128Z,3.00
2023-01-13T19:56:15.474Z,3.00
2023-01-13T20:01:21.277Z,3.00
2023-01-13T20:06:24.848Z,3.00
2023-01-13T20:11:31.529Z,3.20
2023-01-13T20:16:40.010Z,3.40
2023-01-13T20:21:44.097Z,3.40
2023-01-13T20:26:50.630Z,3.40
2023-01-13T20:31:56.167Z,3.50
2023-01-13T20:37:03.452Z,3.40
2023-01-13T20:42:32.062Z,3.60
2023-01-13T20:47:37.091Z,3.70
2023-01-13T20:52:41.837Z,3.80
2023-01-13T20:57:48.817Z,3.60
2023-01-13T21:02:53.830Z,3.70
2023-01-13T21:07:57.324Z,3.80
2023-01-13T21:13:18.478Z,3.90
2023-01-13T21:18:42.606Z,4.10
2023-01-13T21:23:47.703Z,4.20
2023-01-13T21:28:52.719Z,4.30
2023-01-13T21:33:59.447Z,4.30
2023-01-13T21:39:02.738Z,4.40
2023-01-13T21:44:35.716Z,4.40
2023-01-13T21:49:44.498Z,4.50
2023-01-13T21:55:05.197Z,4.60
2023-01-13T22:00:12.778Z,4.50
2023-01-13T22:05:22.745Z,4.70
2023-01-13T22:10:30.589Z,4.80
2023-01-13T22:15:35.140Z,4.80
2023-01-13T22:20:43.843Z,4.90
2023-01-13T22:25:47.180Z,4.70
2023-01-13T22:30:53.523Z,4.60
2023-01-13T22:35:58.890Z,4.40
2023-01-13T22:41:04.806Z,4.30
2023-01-13T22:46:10.214Z,4.10
2023-01-13T22:51:18.760Z,4.10
2023-01-13T22:56:24.689Z,4.20
2023-01-13T23:01:30.323Z,4.30
2023-01-13T23:06:36.970Z,4.10
2023-01-13T23:11:43.192Z,4.10
2023-01-13T23:16:47.360Z,4.00
2023-01-13T23:21:52.226Z,3.90
2023-01-13T23:26:55.952Z,3.80
2023-01-13T23:31:59.344Z,3.70
2023-01-13T23:37:04.207Z,3.50
2023-01-13T23:42:07.643Z,3.40
2023-01-13T23:47:12.207Z,3.20
2023-01-13T23:52:18.212Z,3.50
2023-01-13T23:57:21.543Z,3.50
